Nearby METAR Reports

 

EGTE - Exeter Airport, United Kingdom
Distance from station: S 19km
Updated: 23/10/2020 02:20
Few Clouds
Few Clouds
 Wind from varies
Wind: varies 6 km/h
Temperature: 12°C
Dew Point: 11°C
Humidity: 94%
Barometer: 1008 hPa
Clouds: Few Clouds
Visibility: 10 km
Cloud details: Few Clouds 914 m
2020/10/23 01:20 EGTE 230120Z VRB03KT 9999 FEW030 12/11 Q1008
EGDY - Yeovilton (navy), United Kingdom
Distance from station: ENE 55km
Updated: 23/10/2020 02:50
Rain, Mostly cloudy
Rain, Mostly cloudy
 Wind from S
Wind: S 24 km/h
Temperature: 13°C
Dew Point: 13°C
Humidity: 100%
Barometer: 1007 hPa
Summary: Rain
Clouds: Mostly cloudy
Visibility: 10 km
Cloud details: Partly cloudy 1006 m
Mostly cloudy 1524 m
2020/10/23 01:50 EGDY 230150Z AUTO 19013KT 9999 RA SCT033/// BKN050/// 13/13 Q1007
 
EGFF - Cardiff-Wales Ar, United Kingdom
Distance from station: N 56km
Updated: 23/10/2020 03:20
Overcast
Overcast
 Wind from S
Wind: S 6 km/h
Temperature: 11°C
Dew Point: 11°C
Humidity: 100%
Barometer: 1007 hPa
Clouds: Overcast
Visibility: 10 km
Cloud details: Mostly cloudy 335 m
Mostly cloudy 1067 m
Overcast 1250 m
2020/10/23 02:20 EGFF 230220Z AUTO 19003KT 9999 BKN011 BKN035 OVC041 11/11 Q1007
EGDX - St Athan Raf, United Kingdom
Distance from station: N 58km
Updated: 01/04/2019 13:50
NOT Current
Clear
Clear
 Wind from E
Wind: E 15 km/h
Temperature: 11°C
Dew Point: 5°C
Humidity: 67%
Barometer: 1019 hPa
Clouds: Clear
Visibility: 10 km
2019/04/01 12:50 EGDX 011250Z AUTO 10008KT 9999 NCD 11/05 Q1019
 
EGGD - Bristol/Lulsgate, United Kingdom
Distance from station: NE 71km
Updated: 23/10/2020 03:20
Thunderstorm
Thunderstorm
 Wind from SSW
Wind: SSW 11 km/h
Temperature: 11°C
Dew Point: 11°C
Humidity: 100%
Barometer: 1007 hPa
Clouds: Thunderstorm
Visibility: 10 km
Cloud details: Partly cloudy 732 m
Mostly cloudy 914 m
Mostly cloudy 1250 m
2020/10/23 02:20 EGGD 230220Z AUTO 21006KT 9999 SCT024/// BKN030/// BKN041/// //////CB 11/11 Q1007